Time;durP1;ratioP1;P1;durP2;ratioP2;P2;SDS_P1;SDS_P2;PMS_P1;PMS_P2;Temp;Humidity;BMP_temperature;BMP_pressure;BME280_temperature;BME280_humidity;BME280_pressure;Samples;Min_cycle;Max_cycle;Signal;HPM_P1;HPM_P2
2022/09/15 06:03:03;;;;;;;18.17;1.83;;;18.80;64.00;;;;;;6191673;23;20028;-72
2022/09/15 06:05:29;;;;;;;25.35;3.15;;;18.80;64.70;;;;;;6219398;23;20083;-70
2022/09/15 06:07:55;;;;;;;21.42;2.17;;;18.90;65.70;;;;;;6217209;23;20048;-76
2022/09/15 06:10:23;;;;;;;9.65;1.50;;;18.90;63.90;;;;;;6218050;23;20019;-77
2022/09/15 06:12:52;;;;;;;6.97;1.33;;;18.80;63.00;;;;;;6192446;23;20078;-77
2022/09/15 06:15:19;;;;;;;12.07;1.67;;;18.70;63.10;;;;;;6217919;23;20017;-74
2022/09/15 06:17:45;;;;;;;17.30;1.80;;;18.70;63.50;;;;;;6217609;23;20020;-74
2022/09/15 06:20:11;;;;;;;13.43;1.08;;;18.60;63.90;;;;;;6218085;23;20036;-75
2022/09/15 06:22:37;;;;;;;6.28;1.08;;;18.60;64.00;;;;;;6217965;23;20313;-81
2022/09/15 06:25:03;;;;;;;15.13;1.77;;;18.60;63.90;;;;;;6167013;23;20040;-75
2022/09/15 06:27:29;;;;;;;9.20;1.00;;;18.70;63.80;;;;;;6217606;23;20027;-74
2022/09/15 06:29:54;;;;;;;8.00;1.13;;;18.70;63.60;;;;;;6191462;23;20016;-74
2022/09/15 06:32:20;;;;;;;8.23;0.98;;;18.70;63.50;;;;;;6218693;23;20020;-75
2022/09/15 06:34:46;;;;;;;5.63;0.93;;;18.70;63.30;;;;;;6218254;23;20016;-74
2022/09/15 06:37:12;;;;;;;4.05;0.70;;;18.70;63.20;;;;;;6218527;23;20306;-75
2022/09/15 06:39:38;;;;;;;7.97;0.95;;;18.70;63.20;;;;;;6217353;23;20083;-73
2022/09/15 06:42:05;;;;;;;7.63;0.77;;;18.70;63.20;;;;;;6217355;23;20425;-73
2022/09/15 06:44:31;;;;;;;3.58;1.00;;;18.70;63.20;;;;;;6217661;23;20055;-77
2022/09/15 06:46:59;;;;;;;3.53;0.70;;;18.70;63.20;;;;;;6217375;23;20020;-75
2022/09/15 06:49:25;;;;;;;5.82;0.98;;;18.70;63.20;;;;;;6217544;23;20044;-75
2022/09/15 06:51:51;;;;;;;5.10;0.70;;;18.70;63.20;;;;;;6217742;23;20035;-77
2022/09/15 06:54:17;;;;;;;3.13;0.30;;;18.80;63.30;;;;;;6217270;23;20012;-76
2022/09/15 06:56:43;;;;;;;4.00;0.70;;;18.80;63.40;;;;;;6217281;23;20043;-75
2022/09/15 06:59:14;;;;;;;3.10;0.60;;;18.80;63.10;;;;;;6217372;23;20035;-77
2022/09/15 07:01:40;;;;;;;5.68;0.60;;;18.70;62.30;;;;;;6217443;23;20020;-77
2022/09/15 07:04:08;;;;;;;5.85;0.85;;;18.70;62.30;;;;;;6217369;23;20146;-72
2022/09/15 07:06:36;;;;;;;6.90;0.95;;;18.60;62.10;;;;;;6191293;23;20444;-80
2022/09/15 07:09:02;;;;;;;2.75;0.80;;;18.60;62.30;;;;;;6166737;23;20013;-78
2022/09/15 07:11:28;;;;;;;4.03;0.80;;;18.60;62.30;;;;;;6166445;23;20024;-79
2022/09/15 07:13:54;;;;;;;6.40;0.75;;;18.60;62.40;;;;;;6217714;23;20013;-77
2022/09/15 07:16:21;;;;;;;4.88;1.23;;;18.60;62.70;;;;;;6191487;23;20025;-81
2022/09/15 07:18:47;;;;;;;3.88;0.60;;;18.60;63.00;;;;;;6191403;23;20020;-76
2022/09/15 07:21:18;;;;;;;5.97;0.70;;;18.70;63.20;;;;;;6217282;23;20497;-79
2022/09/15 07:23:45;;;;;;;6.30;0.70;;;18.70;63.40;;;;;;6191381;23;20071;-75
2022/09/15 07:26:14;;;;;;;5.97;0.70;;;18.70;63.40;;;;;;6216835;23;20020;-78
2022/09/15 07:28:42;;;;;;;9.30;0.93;;;18.70;63.50;;;;;;6165962;23;20023;-77
2022/09/15 07:31:11;;;;;;;9.50;1.00;;;18.70;63.60;;;;;;6217493;23;20013;-78
2022/09/15 07:33:37;;;;;;;6.53;0.93;;;18.70;63.70;;;;;;6217030;23;20024;-77
2022/09/15 07:36:05;;;;;;;12.25;1.08;;;18.80;63.80;;;;;;6216898;23;20047;-77
2022/09/15 07:38:32;;;;;;;7.15;1.02;;;18.80;63.60;;;;;;6217543;23;20052;-78
2022/09/15 07:41:05;;;;;;;8.52;0.70;;;18.80;63.50;;;;;;6217433;23;20024;-80
2022/09/15 07:43:31;;;;;;;10.32;1.00;;;18.80;63.40;;;;;;6191478;23;20100;-78
2022/09/15 07:45:57;;;;;;;5.35;0.70;;;18.90;63.60;;;;;;6217268;23;20055;-78
2022/09/15 07:48:23;;;;;;;9.75;1.10;;;18.90;63.50;;;;;;6217667;23;20016;-78
2022/09/15 07:50:49;;;;;;;8.30;1.35;;;18.90;63.50;;;;;;6217697;23;20287;-78
2022/09/15 07:53:17;;;;;;;13.40;1.55;;;18.90;63.50;;;;;;6191544;23;20013;-78
2022/09/15 07:55:43;;;;;;;16.60;1.67;;;18.90;63.40;;;;;;6217158;23;20012;-76
2022/09/15 07:58:09;;;;;;;17.80;1.15;;;18.90;63.30;;;;;;6217493;23;20313;-74
2022/09/15 08:00:37;;;;;;;9.52;1.38;;;18.90;63.50;;;;;;6191063;23;20028;-75
2022/09/15 08:03:03;;;;;;;10.55;1.40;;;18.90;64.30;;;;;;6190751;23;20051;-76
2022/09/15 08:05:29;;;;;;;11.00;1.52;;;18.90;63.80;;;;;;6216810;23;20035;-73
2022/09/15 08:07:55;;;;;;;8.32;1.27;;;18.90;64.00;;;;;;6217723;23;20079;-77
2022/09/15 08:10:22;;;;;;;8.60;1.10;;;19.00;64.10;;;;;;6217311;23;20020;-73
2022/09/15 08:12:48;;;;;;;6.78;1.20;;;19.00;64.20;;;;;;6216923;23;20301;-74
2022/09/15 08:15:14;;;;;;;13.40;1.85;;;19.00;64.50;;;;;;6216846;23;20017;-74
2022/09/15 08:17:39;;;;;;;12.68;1.92;;;19.00;64.50;;;;;;6216747;23;20021;-75
2022/09/15 08:20:06;;;;;;;8.85;1.20;;;19.00;64.50;;;;;;6191527;23;20048;-74
2022/09/15 08:22:32;;;;;;;9.45;1.65;;;19.00;64.40;;;;;;6218135;23;20316;-77
2022/09/15 08:24:57;;;;;;;3.58;0.65;;;19.00;64.10;;;;;;6218808;23;20278;-76
2022/09/15 08:27:24;;;;;;;6.13;0.80;;;19.10;63.80;;;;;;6219143;23;20023;-78
2022/09/15 08:29:50;;;;;;;3.55;0.77;;;19.00;63.50;;;;;;6219064;23;20020;-78
2022/09/15 08:32:16;;;;;;;4.93;0.63;;;19.10;63.30;;;;;;6218619;23;20017;-77
2022/09/15 08:34:41;;;;;;;5.72;0.90;;;19.00;62.90;;;;;;6218225;23;20315;-78
2022/09/15 08:37:07;;;;;;;3.88;0.90;;;19.00;62.50;;;;;;6219123;23;20031;-78
2022/09/15 08:39:33;;;;;;;6.85;1.13;;;19.00;62.20;;;;;;6219221;23;20291;-79
2022/09/15 08:42:00;;;;;;;17.15;1.63;;;19.00;62.20;;;;;;6218701;23;20016;-80
2022/09/15 08:44:51;;;;;;;14.57;1.10;;;19.00;62.20;;;;;;6219006;23;20012;-78
2022/09/15 08:47:25;;;;;;;8.20;0.98;;;19.10;62.30;;;;;;6192267;23;20088;-77
2022/09/15 08:50:29;;;;;;;7.00;1.05;;;19.10;62.40;;;;;;6218194;23;20020;-77
2022/09/15 08:53:18;;;;;;;4.95;0.88;;;19.10;62.40;;;;;;6218650;23;20021;-77
2022/09/15 08:55:51;;;;;;;10.65;1.42;;;19.10;62.50;;;;;;6218418;23;20504;-77
2022/09/15 08:58:22;;;;;;;6.45;0.90;;;19.00;62.60;;;;;;6218512;23;20024;-77
2022/09/15 09:01:02;;;;;;;7.80;0.88;;;19.10;62.80;;;;;;6217731;23;20488;-75
2022/09/15 09:03:34;;;;;;;12.55;1.30;;;19.10;63.00;;;;;;6218162;23;20027;-77
2022/09/15 09:06:04;;;;;;;7.28;0.70;;;19.10;62.90;;;;;;6218247;23;20021;-73
2022/09/15 09:08:59;;;;;;;5.93;0.70;;;19.10;62.60;;;;;;6218962;23;20028;-74
2022/09/15 09:12:00;;;;;;;6.75;0.90;;;19.10;63.00;;;;;;6192248;23;20023;-73
2022/09/15 09:14:54;;;;;;;6.85;0.90;;;19.10;63.00;;;;;;6087090;23;20019;-73
2022/09/15 09:17:32;;;;;;;4.90;0.55;;;19.10;63.00;;;;;;6161133;23;20027;-79
2022/09/15 09:20:54;;;;;;;3.95;0.90;;;19.10;62.40;;;;;;5133815;27;20359;-75
2022/09/15 09:23:25;;;;;;;4.57;0.93;;;19.10;63.00;;;;;;5111984;28;20056;-74
2022/09/15 09:25:51;;;;;;;5.47;0.50;;;19.10;63.10;;;;;;5112918;28;20075;-72
2022/09/15 09:28:30;;;;;;;5.90;0.93;;;19.10;63.00;;;;;;5112879;28;20465;-74
2022/09/15 09:31:05;;;;;;;5.28;0.60;;;19.10;63.10;;;;;;5112842;28;20096;-73
2022/09/15 09:33:42;;;;;;;5.22;0.82;;;19.20;62.80;;;;;;5095103;28;20052;-73
2022/09/15 09:36:11;;;;;;;4.32;0.60;;;19.20;62.90;;;;;;5092152;28;20048;-75
2022/09/15 09:38:42;;;;;;;3.67;0.60;;;19.20;62.90;;;;;;5091338;28;20451;-75
2022/09/15 09:41:24;;;;;;;5.07;0.70;;;19.20;63.00;;;;;;5095991;28;20051;-74
2022/09/15 09:43:53;;;;;;;5.63;0.90;;;19.20;63.30;;;;;;5092372;28;20048;-75
2022/09/15 09:46:20;;;;;;;7.05;0.95;;;19.30;63.30;;;;;;5101315;28;20109;-74
2022/09/15 09:49:03;;;;;;;1.83;0.70;;;19.30;63.40;;;;;;5112603;28;20054;-73
2022/09/15 09:51:34;;;;;;;3.80;0.83;;;19.30;63.60;;;;;;5112290;28;20070;-73
2022/09/15 09:54:15;;;;;;;2.60;0.40;;;19.30;63.60;;;;;;5112194;28;20122;-74
2022/09/15 09:56:42;;;;;;;5.60;0.65;;;19.30;63.80;;;;;;5112604;28;20123;-75
2022/09/15 09:59:30;;;;;;;2.80;0.50;;;19.30;63.70;;;;;;5112501;28;20071;-75
2022/09/15 10:02:14;;;;;;;3.92;0.77;;;19.40;63.60;;;;;;5103164;28;20358;-74
2022/09/15 10:04:45;;;;;;;3.33;0.50;;;19.40;63.70;;;;;;5091851;28;20087;-76
2022/09/15 10:07:11;;;;;;;4.35;0.57;;;19.40;63.70;;;;;;5108012;28;20047;-74
2022/09/15 10:09:40;;;;;;;2.72;0.60;;;19.40;63.80;;;;;;5111868;28;20435;-74
2022/09/15 10:12:17;;;;;;;5.18;0.60;;;19.40;63.80;;;;;;5111701;28;20037;-79
2022/09/15 10:14:51;;;;;;;6.07;0.95;;;19.40;63.70;;;;;;5080568;28;20084;-80
2022/09/15 10:17:35;;;;;;;5.07;0.82;;;19.40;63.40;;;;;;5073700;28;20055;-75
2022/09/15 10:20:03;;;;;;;7.15;0.85;;;19.40;63.50;;;;;;5090655;28;20058;-78
2022/09/15 10:22:33;;;;;;;2.95;0.30;;;19.40;63.50;;;;;;5091029;28;20131;-76
2022/09/15 10:25:01;;;;;;;4.53;0.43;;;19.40;63.80;;;;;;5091358;28;20347;-76
2022/09/15 10:27:33;;;;;;;6.05;1.30;;;19.40;63.80;;;;;;5073972;28;20052;-76
2022/09/15 10:30:16;;;;;;;2.53;0.70;;;19.40;63.50;;;;;;5091171;28;20044;-76
2022/09/15 10:32:42;;;;;;;3.58;0.77;;;19.40;63.60;;;;;;5087185;28;20050;-75
2022/09/15 10:35:19;;;;;;;4.68;0.55;;;19.50;63.80;;;;;;5098073;28;20122;-76
2022/09/15 10:38:07;;;;;;;4.18;1.10;;;19.40;63.90;;;;;;5080468;28;20079;-76
2022/09/15 10:40:55;;;;;;;3.35;0.70;;;19.50;64.00;;;;;;5077875;28;20041;-77
2022/09/15 10:43:23;;;;;;;5.78;1.15;;;19.50;64.20;;;;;;5078211;28;20343;-77
2022/09/15 10:46:06;;;;;;;4.00;0.60;;;19.50;64.20;;;;;;5077739;28;20367;-76
2022/09/15 10:49:02;;;;;;;8.73;1.00;;;19.50;64.20;;;;;;5078079;28;20087;-76
2022/09/15 10:51:39;;;;;;;5.63;0.93;;;19.50;63.90;;;;;;5077763;28;20051;-78
2022/09/15 10:54:31;;;;;;;9.80;0.77;;;19.50;63.10;;;;;;5060054;28;20431;-80
2022/09/15 10:57:07;;;;;;;2.47;0.55;;;19.50;63.10;;;;;;5073398;28;20075;-81
2022/09/15 10:59:59;;;;;;;6.60;0.70;;;19.50;62.90;;;;;;5059707;28;20052;-75
2022/09/15 11:02:44;;;;;;;5.25;0.50;;;19.50;62.80;;;;;;5066627;28;20065;-74
2022/09/15 11:05:24;;;;;;;3.75;0.40;;;19.50;63.10;;;;;;5077196;28;20040;-75
2022/09/15 11:07:55;;;;;;;5.13;0.70;;;19.50;63.30;;;;;;5077462;28;20105;-75
2022/09/15 11:10:24;;;;;;;2.92;0.63;;;19.60;63.60;;;;;;5077055;28;20041;-75
2022/09/15 11:12:58;;;;;;;4.95;0.50;;;19.60;63.60;;;;;;5077154;28;20109;-75
2022/09/15 11:15:43;;;;;;;5.38;0.60;;;19.60;63.60;;;;;;5077203;28;20129;-75
2022/09/15 11:18:21;;;;;;;3.65;0.98;;;19.60;63.70;;;;;;5087009;28;20048;-75
2022/09/15 11:20:55;;;;;;;4.07;0.40;;;19.60;63.60;;;;;;5075430;28;20041;-75
2022/09/15 11:24:01;;;;;;;4.68;0.40;;;19.60;63.70;;;;;;5076810;28;20079;-75
2022/09/15 11:26:35;;;;;;;3.03;0.55;;;19.60;63.90;;;;;;5077072;28;20101;-75
2022/09/15 11:29:11;;;;;;;6.53;0.70;;;19.60;63.90;;;;;;5077141;28;20135;-77
2022/09/15 11:31:40;;;;;;;5.03;0.60;;;19.60;63.90;;;;;;5077064;28;20048;-75
2022/09/15 11:34:14;;;;;;;2.83;0.60;;;19.60;64.00;;;;;;5067085;28;20052;-75
2022/09/15 11:37:08;;;;;;;4.22;0.50;;;19.60;64.20;;;;;;5066345;28;20381;-75
2022/09/15 11:39:45;;;;;;;7.28;0.85;;;19.60;63.90;;;;;;5076396;28;20177;-76
2022/09/15 11:42:25;;;;;;;4.35;0.77;;;19.60;63.90;;;;;;5075137;28;20048;-75
2022/09/15 11:44:54;;;;;;;3.33;0.63;;;19.60;63.90;;;;;;5075086;28;20061;-75
2022/09/15 11:47:41;;;;;;;7.40;1.00;;;19.60;63.70;;;;;;5075515;28;20048;-76
2022/09/15 11:50:10;;;;;;;5.78;0.57;;;19.60;63.80;;;;;;5076113;28;20398;-76
2022/09/15 11:53:00;;;;;;;12.18;1.25;;;19.70;63.90;;;;;;5063350;28;20127;-76
2022/09/15 11:55:29;;;;;;;5.45;0.73;;;19.70;63.80;;;;;;5056334;28;20059;-76
2022/09/15 11:58:17;;;;;;;7.90;0.93;;;19.70;64.00;;;;;;5056186;28;20123;-76
2022/09/15 12:00:57;;;;;;;5.13;0.80;;;19.70;64.00;;;;;;5055847;28;20459;-75
2022/09/15 12:03:29;;;;;;;5.95;0.73;;;19.70;64.00;;;;;;5072749;28;20052;-76
2022/09/15 12:06:05;;;;;;;6.15;0.95;;;19.70;64.10;;;;;;5076678;28;20076;-75
2022/09/15 12:08:49;;;;;;;2.20;0.40;;;19.70;64.80;;;;;;5075983;28;20040;-76
2022/09/15 12:11:21;;;;;;;2.55;0.57;;;19.70;64.20;;;;;;5075931;28;20047;-76
2022/09/15 12:13:47;;;;;;;6.05;1.33;;;19.70;64.30;;;;;;5075969;28;20094;-76
2022/09/15 12:16:14;;;;;;;3.53;0.38;;;19.70;64.30;;;;;;5076588;28;20047;-75
2022/09/15 12:18:53;;;;;;;5.13;0.40;;;19.70;64.40;;;;;;5061501;28;20354;-77
2022/09/15 12:21:32;;;;;;;3.25;0.93;;;19.70;64.40;;;;;;5079505;28;20186;-76
2022/09/15 12:24:20;;;;;;;2.28;0.60;;;19.70;64.50;;;;;;5075736;28;20049;-76
2022/09/15 12:26:46;;;;;;;5.55;0.50;;;19.70;64.50;;;;;;5075951;28;20049;-77
2022/09/15 12:29:27;;;;;;;12.90;0.90;;;19.70;64.60;;;;;;5076041;28;20413;-76
2022/09/15 12:32:19;;;;;;;10.93;0.98;;;19.80;64.60;;;;;;5075439;28;20044;-77
2022/09/15 12:35:02;;;;;;;8.13;1.65;;;19.80;64.60;;;;;;5075656;28;20044;-76
2022/09/15 12:37:42;;;;;;;23.27;2.83;;;19.70;64.20;;;;;;5075685;28;20127;-76
2022/09/15 12:40:27;;;;;;;15.05;2.03;;;19.80;64.40;;;;;;5065161;28;20056;-78
2022/09/15 12:42:56;;;;;;;19.88;2.33;;;19.80;64.20;;;;;;5088164;28;20055;-80
2022/09/15 13:30:40;;;;;;;17.85;2.88;;;19.80;65.80;;;;;;5679744;24;20055;-74
2022/09/15 13:33:20;;;;;;;26.25;3.00;;;19.90;65.90;;;;;;4787214;29;20059;-76
2022/09/15 15:39:23;;;;;;;14.73;1.20;;;19.60;67.50;;;;;;5589974;24;20054;-73
2022/09/15 15:42:04;;;;;;;10.90;1.17;;;19.70;67.60;;;;;;4827126;29;20465;-75
2022/09/15 15:44:31;;;;;;;7.35;1.02;;;19.70;67.30;;;;;;4827192;29;20066;-78
2022/09/15 15:47:21;;;;;;;7.32;1.00;;;19.70;67.30;;;;;;4811650;29;20057;-77
2022/09/15 15:49:48;;;;;;;6.75;0.88;;;19.70;67.60;;;;;;4827059;29;20046;-79
2022/09/15 15:52:14;;;;;;;6.45;0.98;;;19.80;67.70;;;;;;4827109;29;20051;-74
2022/09/15 15:54:41;;;;;;;7.97;1.38;;;19.80;67.80;;;;;;4826961;29;20107;-76
2022/09/15 15:57:29;;;;;;;4.57;0.85;;;19.80;67.90;;;;;;4826495;29;20123;-75
2022/09/15 15:59:59;;;;;;;6.28;0.85;;;19.90;67.80;;;;;;4827383;29;20068;-76
2022/09/15 16:02:25;;;;;;;7.57;0.95;;;19.90;67.60;;;;;;4827212;29;20450;-74
2022/09/15 16:04:51;;;;;;;5.10;0.80;;;19.90;67.60;;;;;;4827062;29;20054;-74
2022/09/15 16:07:20;;;;;;;7.80;1.10;;;19.90;67.60;;;;;;4810228;29;20055;-74
2022/09/15 16:09:47;;;;;;;4.22;0.50;;;19.80;67.60;;;;;;4827220;29;20047;-74
2022/09/15 16:12:14;;;;;;;7.00;1.25;;;19.90;67.70;;;;;;4826921;29;20073;-76
2022/09/15 16:14:40;;;;;;;5.45;1.10;;;19.90;67.70;;;;;;4826967;29;20125;-77
2022/09/15 16:17:05;;;;;;;6.72;1.08;;;19.90;67.70;;;;;;4811088;29;20415;-75
2022/09/15 16:19:31;;;;;;;5.43;0.88;;;19.90;67.70;;;;;;4810864;29;20129;-76
2022/09/15 16:21:57;;;;;;;3.85;1.10;;;19.90;67.70;;;;;;4826134;29;20458;-75
2022/09/15 16:24:23;;;;;;;5.97;0.90;;;19.90;67.70;;;;;;4826614;29;20077;-76
2022/09/15 16:26:49;;;;;;;4.38;0.57;;;19.90;67.80;;;;;;4823625;29;20070;-77
2022/09/15 16:29:15;;;;;;;2.42;0.63;;;19.90;67.80;;;;;;4815611;29;20046;-75
2022/09/15 16:31:41;;;;;;;4.60;0.98;;;19.90;67.80;;;;;;4808832;29;20394;-76
2022/09/15 16:34:16;;;;;;;3.58;0.57;;;19.90;67.80;;;;;;4808434;29;20486;-76
2022/09/15 16:36:42;;;;;;;5.80;0.73;;;19.90;67.80;;;;;;4791038;29;20066;-77
2022/09/15 16:39:08;;;;;;;8.18;1.20;;;19.90;67.80;;;;;;4807847;29;20390;-77
2022/09/15 16:41:35;;;;;;;3.78;1.10;;;19.90;67.80;;;;;;4807873;29;20070;-75
2022/09/15 16:44:01;;;;;;;3.42;0.45;;;20.00;67.50;;;;;;4808204;29;20046;-77
2022/09/15 16:46:27;;;;;;;8.57;0.90;;;19.90;65.40;;;;;;4807886;29;20394;-76
2022/09/15 16:48:53;;;;;;;5.30;0.80;;;19.80;64.50;;;;;;4807930;29;20047;-76
2022/09/15 16:51:22;;;;;;;11.18;0.70;;;19.60;65.00;;;;;;4791941;29;20125;-78
2022/09/15 16:53:50;;;;;;;4.28;0.90;;;19.60;65.60;;;;;;4807984;29;20047;-76
2022/09/15 16:56:17;;;;;;;5.25;0.77;;;19.60;66.00;;;;;;4808019;29;20460;-76
2022/09/15 16:58:43;;;;;;;1.73;0.57;;;19.60;66.20;;;;;;4808074;29;20068;-79
2022/09/15 17:01:23;;;;;;;3.22;0.75;;;19.60;66.30;;;;;;4807474;29;20134;-79
2022/09/15 17:03:49;;;;;;;2.83;0.43;;;19.60;66.30;;;;;;4807986;29;20073;-77
2022/09/15 17:06:16;;;;;;;4.78;0.77;;;19.70;66.50;;;;;;4807867;29;20471;-78
2022/09/15 17:08:42;;;;;;;4.20;0.60;;;19.70;66.50;;;;;;4807986;29;20134;-77
2022/09/15 17:11:13;;;;;;;2.80;0.70;;;19.70;66.50;;;;;;4807775;29;20101;-78
2022/09/15 17:13:39;;;;;;;4.20;0.70;;;19.70;66.50;;;;;;4807309;29;20086;-77
2022/09/15 17:16:05;;;;;;;3.45;0.63;;;19.70;66.50;;;;;;4806762;29;20471;-77
2022/09/15 18:44:23;;;;;;;5.07;0.80;;;18.80;64.60;;;;;;4786687;29;20154;-81
2022/09/15 18:46:49;;;;;;;10.93;0.90;;;18.80;64.80;;;;;;4761692;30;20142;-83
2022/09/15 18:49:15;;;;;;;9.45;0.77;;;18.90;65.00;;;;;;4776306;30;20062;-79
2022/09/15 18:51:40;;;;;;;7.95;0.75;;;18.90;65.20;;;;;;4776387;30;20185;-82
2022/09/15 18:54:06;;;;;;;6.15;1.00;;;18.90;65.40;;;;;;4761695;30;20051;-80
2022/09/15 18:56:32;;;;;;;7.72;0.93;;;18.90;65.60;;;;;;4791704;30;20477;-81
2022/09/15 18:59:01;;;;;;;7.88;0.90;;;19.00;65.70;;;;;;4776519;30;20051;-82
2022/09/15 19:01:35;;;;;;;5.00;0.60;;;19.00;65.60;;;;;;4791671;29;20091;-80
2022/09/15 19:04:04;;;;;;;6.95;0.73;;;19.00;65.30;;;;;;4801956;29;20098;-83
2022/09/15 19:06:34;;;;;;;7.45;0.80;;;19.00;65.20;;;;;;4776113;30;20052;-81
2022/09/15 19:09:01;;;;;;;5.22;0.90;;;18.90;65.10;;;;;;4792076;30;20069;-79
2022/09/15 19:11:27;;;;;;;6.68;0.90;;;18.90;65.30;;;;;;4791732;30;20083;-79
2022/09/15 19:13:53;;;;;;;5.30;0.80;;;18.80;65.40;;;;;;4776176;30;20146;-80
2022/09/15 19:16:19;;;;;;;5.03;0.93;;;18.80;65.60;;;;;;4791734;30;20201;-79
2022/09/15 19:18:55;;;;;;;6.90;1.00;;;18.70;66.50;;;;;;4790117;30;20379;-78
2022/09/15 19:21:41;;;;;;;8.80;0.70;;;18.70;66.30;;;;;;4775887;30;20063;-84
2022/09/15 19:24:14;;;;;;;14.30;7.22;;;18.60;66.80;;;;;;4778408;30;20467;-83
2022/09/15 19:27:18;;;;;;;10.00;4.30;;;18.60;67.00;;;;;;4780859;30;20044;-83
2022/09/15 19:33:27;;;;;;;8.13;1.80;;;18.60;66.40;;;;;;4757753;30;20060;-83
2022/09/15 19:35:53;;;;;;;6.68;1.50;;;18.50;66.80;;;;;;4784500;29;20050;-82
2022/09/15 19:38:19;;;;;;;8.05;1.70;;;18.40;67.20;;;;;;4790401;30;20135;-85
2022/09/15 19:40:45;;;;;;;11.02;1.92;;;18.50;67.30;;;;;;4783045;30;20048;-79
2022/09/15 19:43:11;;;;;;;7.75;2.47;;;18.50;67.30;;;;;;4772997;30;20063;-79
2022/09/15 19:45:41;;;;;;;6.55;1.83;;;18.50;67.20;;;;;;4773054;30;20459;-76
2022/09/15 19:48:07;;;;;;;6.38;1.70;;;18.60;67.30;;;;;;4773402;30;20079;-78
2022/09/15 19:50:32;;;;;;;5.07;1.75;;;18.60;67.30;;;;;;4780765;29;20075;-73
2022/09/15 19:52:58;;;;;;;11.48;2.47;;;18.60;67.40;;;;;;4807634;29;20079;-78
2022/09/15 19:55:24;;;;;;;8.52;1.92;;;18.70;67.50;;;;;;4807687;29;20046;-78
2022/09/15 19:57:49;;;;;;;11.63;2.28;;;18.70;67.60;;;;;;4792801;29;20137;-78
2022/09/15 20:00:15;;;;;;;9.30;2.78;;;18.70;67.60;;;;;;4791269;29;20055;-77
2022/09/15 20:02:41;;;;;;;10.20;1.70;;;18.80;67.60;;;;;;4806590;29;20070;-79
2022/09/15 20:05:07;;;;;;;11.38;2.83;;;18.80;67.60;;;;;;4795914;29;20051;-79
2022/09/15 20:07:33;;;;;;;13.05;2.60;;;18.80;67.80;;;;;;4806957;29;20062;-80
2022/09/15 20:09:59;;;;;;;12.23;2.75;;;18.90;68.10;;;;;;4780733;30;20043;-81
2022/09/15 20:12:31;;;;;;;8.27;1.42;;;18.90;68.30;;;;;;4760278;30;20438;-83
2022/09/15 20:14:56;;;;;;;9.05;2.13;;;18.90;68.10;;;;;;4775811;29;20359;-82
2022/09/15 20:17:22;;;;;;;6.57;1.27;;;19.00;68.00;;;;;;4777818;29;20053;-86
2022/09/15 20:19:48;;;;;;;4.22;0.65;;;19.00;67.00;;;;;;4792527;29;20413;-81
2022/09/15 20:22:14;;;;;;;5.95;0.52;;;18.90;65.20;;;;;;4777881;30;20087;-79
2022/09/15 20:24:39;;;;;;;5.45;0.93;;;18.80;64.40;;;;;;4777950;30;20070;-78
2022/09/15 20:27:07;;;;;;;5.07;0.90;;;18.70;64.50;;;;;;4790212;30;20047;-80
2022/09/15 20:29:36;;;;;;;5.50;1.05;;;18.50;64.80;;;;;;4774754;30;20061;-79
2022/09/15 20:32:03;;;;;;;4.35;0.90;;;18.40;65.20;;;;;;4790575;30;20082;-83
2022/09/15 20:34:29;;;;;;;6.75;1.20;;;18.30;65.40;;;;;;4774089;30;20059;-81
2022/09/15 20:36:54;;;;;;;6.40;1.30;;;18.20;65.60;;;;;;4789988;30;20137;-81
2022/09/15 20:39:23;;;;;;;7.30;1.25;;;18.20;65.80;;;;;;4774062;30;20447;-78
2022/09/15 20:41:49;;;;;;;4.03;0.77;;;18.10;66.10;;;;;;4774249;30;20063;-80
2022/09/15 20:44:15;;;;;;;2.80;0.60;;;18.10;66.30;;;;;;4790188;30;20047;-80
2022/09/15 20:46:41;;;;;;;3.45;0.98;;;18.00;65.90;;;;;;4789524;30;20534;-78
2022/09/15 20:49:08;;;;;;;4.20;0.63;;;18.00;65.90;;;;;;4790171;30;20050;-77
2022/09/15 20:51:34;;;;;;;3.20;0.50;;;18.00;65.50;;;;;;4790151;30;20062;-75
2022/09/15 20:54:02;;;;;;;2.78;0.43;;;17.90;65.50;;;;;;4774591;30;20125;-76
2022/09/15 20:56:30;;;;;;;2.88;0.30;;;17.80;65.70;;;;;;4790129;30;20059;-79
2022/09/15 20:58:57;;;;;;;4.70;0.40;;;17.80;65.70;;;;;;4790788;30;20118;-78
2022/09/15 21:01:35;;;;;;;4.18;0.50;;;17.70;65.80;;;;;;4759376;30;20126;-78
2022/09/15 21:04:01;;;;;;;4.20;0.88;;;17.70;65.70;;;;;;4790081;30;20148;-79
2022/09/15 21:06:27;;;;;;;4.68;0.98;;;17.70;65.90;;;;;;4774145;30;20051;-79
2022/09/15 21:08:57;;;;;;;8.25;1.02;;;17.60;65.90;;;;;;4789938;30;20047;-80
2022/09/15 21:11:25;;;;;;;8.23;1.20;;;17.60;66.10;;;;;;4790317;30;20519;-76
2022/09/15 21:13:51;;;;;;;3.95;0.70;;;17.60;66.40;;;;;;4789595;30;20514;-76
2022/09/15 21:16:20;;;;;;;4.63;0.63;;;17.60;66.70;;;;;;4773959;30;20047;-79
